createdAt,value
2019-02-18T00:00:02.794Z,55.21
2019-02-18T00:00:28.892Z,55.21
2019-02-18T00:00:54.992Z,55.12
2019-02-18T00:01:21.107Z,55.31
2019-02-18T00:01:47.249Z,55.6
2019-02-18T00:02:14.340Z,55.21
2019-02-18T00:02:40.451Z,55.31
2019-02-18T00:03:06.555Z,55.88
2019-02-18T00:03:32.660Z,55.5
2019-02-18T00:03:58.769Z,55.31
2019-02-18T00:04:24.874Z,55.69
2019-02-18T00:04:50.981Z,55.5
2019-02-18T00:05:17.127Z,55.41
2019-02-18T00:05:43.267Z,55.41
2019-02-18T00:06:09.426Z,55.41
2019-02-18T00:06:35.541Z,55.88
2019-02-18T00:07:01.668Z,55.69
2019-02-18T00:07:28.792Z,55.69
2019-02-18T00:07:54.894Z,56.07
2019-02-18T00:08:21.003Z,56.26
2019-02-18T00:08:47.116Z,56.26
2019-02-18T00:09:13.228Z,55.98
2019-02-18T00:09:39.337Z,56.55
2019-02-18T00:10:05.469Z,56.07
2019-02-18T00:10:31.581Z,56.46
2019-02-18T00:10:57.689Z,55.98
2019-02-18T00:11:23.805Z,56.46
2019-02-18T00:11:49.932Z,56.26
2019-02-18T00:12:16.049Z,56.07
2019-02-18T00:12:42.147Z,55.69
2019-02-18T00:13:08.258Z,55.5
2019-02-18T00:13:34.389Z,55.02
2019-02-18T00:14:00.490Z,55.41
2019-02-18T00:14:26.635Z,55.98
2019-02-18T00:14:52.753Z,55.79
2019-02-18T00:15:18.872Z,55.69
2019-02-18T00:15:44.998Z,55.57
2019-02-18T00:16:11.110Z,55.66
2019-02-18T00:16:37.218Z,55.47
2019-02-18T00:17:03.320Z,55.88
2019-02-18T00:17:29.422Z,55.85
2019-02-18T00:17:55.542Z,56.52
2019-02-18T00:18:21.696Z,56.46
2019-02-18T00:18:47.802Z,56.33
2019-02-18T00:19:13.936Z,55.95
2019-02-18T00:19:40.037Z,56.65
2019-02-18T00:20:06.146Z,56.46
2019-02-18T00:20:32.255Z,56.43
2019-02-18T00:20:58.365Z,56.62
2019-02-18T00:21:24.471Z,56.65
2019-02-18T00:21:50.580Z,57
2019-02-18T00:22:16.686Z,56.52
2019-02-18T00:22:42.790Z,56.46
2019-02-18T00:23:08.925Z,56.62
2019-02-18T00:23:35.036Z,56.43
2019-02-18T00:24:01.132Z,56.14
2019-02-18T00:24:27.240Z,56.33
2019-02-18T00:24:53.344Z,56.04
2019-02-18T00:25:19.455Z,56.04
2019-02-18T00:25:45.586Z,56.14
2019-02-18T00:26:11.696Z,56.33
2019-02-18T00:26:37.799Z,56.24
2019-02-18T00:27:03.904Z,56.33
2019-02-18T00:27:30.006Z,56.43
2019-02-18T00:27:56.137Z,56.04
2019-02-18T00:28:22.274Z,56.33
2019-02-18T00:28:48.377Z,55.95
2019-02-18T00:29:14.488Z,56.04
2019-02-18T00:29:40.599Z,56.04
2019-02-18T00:30:06.776Z,56.04
2019-02-18T00:30:32.843Z,55.95
2019-02-18T00:30:58.950Z,56.04
2019-02-18T00:31:25.062Z,55.85
2019-02-18T00:31:51.164Z,55.95
2019-02-18T00:32:17.271Z,55.95
2019-02-18T00:32:43.411Z,56.43
2019-02-18T00:33:09.522Z,56.33
2019-02-18T00:33:35.657Z,56.43
2019-02-18T00:34:01.765Z,56.71
2019-02-18T00:34:27.866Z,57.28
2019-02-18T00:34:53.996Z,57.38
2019-02-18T00:35:20.108Z,57.09
2019-02-18T00:35:46.211Z,57.67
2019-02-18T00:36:12.323Z,57.48
2019-02-18T00:36:38.452Z,56.43
2019-02-18T00:37:04.563Z,56.33
2019-02-18T00:37:32.649Z,56.33
2019-02-18T00:37:58.754Z,56.33
2019-02-18T00:38:24.856Z,55.95
2019-02-18T00:38:50.973Z,55
2019-02-18T00:39:17.071Z,55.47
2019-02-18T00:39:43.209Z,55.38
2019-02-18T00:40:09.309Z,55.66
2019-02-18T00:40:35.415Z,55.28
2019-02-18T00:41:01.524Z,55.57
2019-02-18T00:41:27.629Z,55.66
2019-02-18T00:41:54.593Z,56.43
2019-02-18T00:42:20.693Z,56.43
2019-02-18T00:42:46.801Z,56.71
2019-02-18T00:43:12.907Z,56.04
2019-02-18T00:43:39.013Z,56.04
2019-02-18T00:44:05.117Z,55.95
2019-02-18T00:44:31.224Z,56.43
2019-02-18T00:44:57.330Z,56.33
2019-02-18T00:45:23.443Z,56.52
2019-02-18T00:45:49.544Z,56.81
2019-02-18T00:46:15.649Z,56.52
2019-02-18T00:46:41.811Z,56.04
2019-02-18T00:47:07.870Z,56.24
2019-02-18T00:47:33.992Z,55.95
2019-02-18T00:48:00.099Z,55.85
2019-02-18T00:48:26.210Z,56.43
2019-02-18T00:48:52.308Z,56.14
2019-02-18T00:49:18.422Z,56.52
2019-02-18T00:49:44.550Z,56.62
2019-02-18T00:50:10.691Z,56.62
2019-02-18T00:50:36.801Z,56.04
2019-02-18T00:51:02.909Z,56.14
2019-02-18T00:51:29.017Z,56.24
2019-02-18T00:51:55.124Z,56.43
2019-02-18T00:52:21.237Z,56.43
2019-02-18T00:52:47.339Z,56.52
2019-02-18T00:53:14.434Z,56.14
2019-02-18T00:53:40.534Z,56.33
2019-02-18T00:54:06.653Z,56.43
2019-02-18T00:54:32.762Z,56.9
2019-02-18T00:54:58.876Z,56.52
2019-02-18T00:55:24.978Z,56.52
2019-02-18T00:55:51.096Z,57.09
2019-02-18T00:56:17.208Z,56.52
2019-02-18T00:56:43.342Z,56.43
2019-02-18T00:57:09.448Z,55.95
2019-02-18T00:57:35.562Z,55.85
2019-02-18T00:58:01.670Z,55.66
2019-02-18T00:58:27.807Z,55.76
2019-02-18T00:58:54.245Z,55.66
2019-02-18T00:59:20.345Z,55.47
2019-02-18T00:59:46.455Z,55.57
2019-02-18T01:00:12.561Z,55.28
2019-02-18T01:00:38.719Z,55.85
2019-02-18T01:01:04.828Z,55.38
2019-02-18T01:01:30.927Z,55.47
2019-02-18T01:01:57.037Z,55.47
2019-02-18T01:02:23.143Z,55.76
2019-02-18T01:02:49.247Z,56.04
2019-02-18T01:03:15.366Z,56.14
2019-02-18T01:03:41.464Z,55.92
2019-02-18T01:04:07.594Z,56.21
2019-02-18T01:04:33.704Z,56.24
2019-02-18T01:04:59.804Z,56.11
2019-02-18T01:05:25.917Z,56.02
2019-02-18T01:05:52.049Z,56.11
2019-02-18T01:06:18.179Z,56.11
2019-02-18T01:06:44.293Z,56.11
2019-02-18T01:07:10.404Z,56.14
2019-02-18T01:07:38.482Z,56.04
2019-02-18T01:08:04.593Z,56.04
2019-02-18T01:08:30.727Z,56.43
2019-02-18T01:08:56.830Z,56.33
2019-02-18T01:09:22.946Z,56.87
2019-02-18T01:09:49.071Z,56.59
2019-02-18T01:10:15.176Z,56.97
2019-02-18T01:10:41.282Z,57.35
2019-02-18T01:11:07.395Z,57.26
2019-02-18T01:11:33.498Z,57.45
2019-02-18T01:11:59.602Z,57.54
2019-02-18T01:12:25.715Z,57.19
2019-02-18T01:12:51.824Z,57.26
2019-02-18T01:13:17.961Z,57.28
2019-02-18T01:13:44.072Z,57.26
2019-02-18T01:14:10.182Z,57.26
2019-02-18T01:14:36.282Z,57.16
2019-02-18T01:15:02.390Z,57.45
2019-02-18T01:15:28.522Z,57.26
2019-02-18T01:15:54.628Z,57.35
2019-02-18T01:16:20.738Z,58.21
2019-02-18T01:16:46.854Z,57.82
2019-02-18T01:17:12.947Z,57.54
2019-02-18T01:17:39.053Z,57.35
2019-02-18T01:18:05.162Z,57.45
2019-02-18T01:18:31.268Z,56.87
2019-02-18T01:18:57.403Z,57.07
2019-02-18T01:19:23.503Z,57.07
2019-02-18T01:19:49.611Z,56.97
2019-02-18T01:20:15.713Z,56.68
2019-02-18T01:20:41.820Z,57.64
2019-02-18T01:21:07.970Z,57.35
2019-02-18T01:21:34.091Z,57.54
2019-02-18T01:22:00.224Z,57.45
2019-02-18T01:22:26.329Z,57.45
2019-02-18T01:22:52.436Z,57.16
2019-02-18T01:23:18.543Z,57.64
2019-02-18T01:23:44.652Z,58.02
2019-02-18T01:24:10.752Z,58.11
2019-02-18T01:24:36.865Z,57.82
2019-02-18T01:25:02.970Z,57.92
2019-02-18T01:25:29.075Z,58.11
2019-02-18T01:25:55.184Z,57.73
2019-02-18T01:26:21.292Z,58.28
2019-02-18T01:26:47.402Z,58.18
2019-02-18T01:27:13.541Z,58.11
2019-02-18T01:27:39.642Z,58.21
2019-02-18T01:28:05.755Z,58.3
2019-02-18T01:28:31.856Z,58.37
2019-02-18T01:28:57.966Z,58.37
2019-02-18T01:29:24.164Z,58.18
2019-02-18T01:29:50.270Z,58.08
2019-02-18T01:30:16.378Z,58.56
2019-02-18T01:30:42.486Z,58.28
2019-02-18T01:31:08.615Z,58.37
2019-02-18T01:31:34.722Z,58.75
2019-02-18T01:32:00.831Z,58.56
2019-02-18T01:32:26.965Z,58.94
2019-02-18T01:32:53.068Z,59.03
2019-02-18T01:33:19.172Z,58.75
2019-02-18T01:33:45.282Z,59.42
2019-02-18T01:34:11.391Z,59.32
2019-02-18T01:34:37.521Z,59.03
2019-02-18T01:35:03.635Z,58.84
2019-02-18T01:35:29.768Z,58.65
2019-02-18T01:35:56.342Z,58.75
2019-02-18T01:36:23.196Z,58.75
2019-02-18T01:36:49.308Z,59.23
2019-02-18T01:37:15.402Z,59.03
2019-02-18T01:37:45.482Z,59.32
2019-02-18T01:38:09.650Z,59.42
2019-02-18T01:38:35.760Z,59.32
2019-02-18T01:39:01.869Z,58.75
2019-02-18T01:39:28.002Z,59.23
2019-02-18T01:39:54.106Z,59.32
2019-02-18T01:40:20.217Z,59.23
2019-02-18T01:40:46.349Z,58.84
2019-02-18T01:41:12.453Z,59.23
2019-02-18T01:41:38.557Z,59.13
2019-02-18T01:42:04.660Z,59.23
2019-02-18T01:42:30.769Z,59.03
2019-02-18T01:42:56.930Z,59.42
2019-02-18T01:43:23.038Z,59.89
2019-02-18T01:43:49.138Z,59.7
2019-02-18T01:44:15.252Z,59.7
2019-02-18T01:44:41.358Z,60.08
2019-02-18T01:45:07.461Z,60.08
2019-02-18T01:45:33.564Z,59.89
2019-02-18T01:45:59.696Z,59.8
2019-02-18T01:46:25.810Z,60.18
2019-02-18T01:46:51.912Z,60.08
2019-02-18T01:47:18.014Z,59.8
2019-02-18T01:47:44.124Z,59.61
2019-02-18T01:48:10.263Z,60.02
2019-02-18T01:48:36.370Z,59.89
2019-02-18T01:49:02.477Z,59.8
2019-02-18T01:49:28.610Z,60.02
2019-02-18T01:49:54.718Z,59.83
2019-02-18T01:50:20.850Z,60.11
2019-02-18T01:50:46.988Z,59.54
2019-02-18T01:51:13.094Z,59.45
2019-02-18T01:51:39.193Z,59.64
2019-02-18T01:52:05.303Z,59.8
2019-02-18T01:52:31.411Z,59.83
2019-02-18T01:52:57.573Z,59.83
2019-02-18T01:53:23.683Z,59.83
2019-02-18T01:53:49.814Z,59.92
2019-02-18T01:54:15.925Z,59.45
2019-02-18T01:54:42.058Z,59.26
2019-02-18T01:55:08.162Z,58.75
2019-02-18T01:55:34.269Z,59.26
2019-02-18T01:56:00.372Z,59.06
2019-02-18T01:56:26.484Z,58.87
2019-02-18T01:56:52.589Z,58.75
2019-02-18T01:57:18.728Z,59.03
2019-02-18T01:57:44.848Z,58.87
2019-02-18T01:58:10.973Z,58.78
2019-02-18T01:58:37.096Z,59.23
2019-02-18T01:59:03.207Z,59.16
2019-02-18T01:59:29.312Z,59.51
2019-02-18T01:59:55.418Z,59.64
2019-02-18T02:00:21.522Z,59.26
2019-02-18T02:00:47.630Z,59.26
2019-02-18T02:01:13.740Z,58.97
2019-02-18T02:01:39.869Z,59.06
2019-02-18T02:02:05.980Z,58.18
2019-02-18T02:02:32.144Z,58.3
2019-02-18T02:02:58.270Z,58.11
2019-02-18T02:03:25.262Z,58.47
2019-02-18T02:03:51.361Z,58.94
2019-02-18T02:04:17.469Z,59.06
2019-02-18T02:04:43.581Z,59.06
2019-02-18T02:05:09.717Z,59.83
2019-02-18T02:05:35.827Z,59.64
2019-02-18T02:06:01.939Z,59.92
2019-02-18T02:06:28.039Z,59.74
2019-02-18T02:06:54.147Z,59.64
2019-02-18T02:07:20.273Z,59.92
2019-02-18T02:07:55.687Z,60.21
2019-02-18T02:08:14.492Z,59.74
2019-02-18T02:08:40.588Z,59.45
2019-02-18T02:09:06.703Z,59.06
2019-02-18T02:09:32.805Z,59.83
2019-02-18T02:09:58.932Z,59.45
2019-02-18T02:10:25.067Z,59.35
2019-02-18T02:10:51.237Z,59.45
2019-02-18T02:11:17.366Z,59.45
2019-02-18T02:11:43.480Z,59.74
2019-02-18T02:12:09.583Z,59.74
2019-02-18T02:12:35.689Z,59.16
2019-02-18T02:13:01.797Z,59.16
2019-02-18T02:13:27.907Z,59.35
2019-02-18T02:13:54.039Z,59.26
2019-02-18T02:14:20.158Z,58.78
2019-02-18T02:14:46.283Z,58.87
2019-02-18T02:15:12.393Z,58.87
2019-02-18T02:15:38.499Z,58.97
2019-02-18T02:16:04.629Z,59.06
2019-02-18T02:16:30.765Z,58.69
2019-02-18T02:16:56.873Z,59.06
2019-02-18T02:17:22.978Z,58.97
2019-02-18T02:17:49.082Z,58.97
2019-02-18T02:18:15.235Z,58.69
2019-02-18T02:18:41.345Z,59.26
2019-02-18T02:19:07.447Z,59.06
2019-02-18T02:19:33.550Z,58.78
2019-02-18T02:19:59.688Z,59.16
2019-02-18T02:20:25.794Z,58.5
2019-02-18T02:20:51.902Z,58.3
2019-02-18T02:21:18.010Z,58.4
2019-02-18T02:21:44.131Z,58.3
2019-02-18T02:22:10.260Z,58.4
2019-02-18T02:22:36.365Z,58.3
2019-02-18T02:23:02.474Z,58.11
2019-02-18T02:23:28.583Z,58.4
2019-02-18T02:23:54.684Z,58.11
2019-02-18T02:24:20.788Z,58.3
2019-02-18T02:24:46.925Z,58.4
2019-02-18T02:25:13.030Z,58.4
2019-02-18T02:25:39.138Z,58.21
2019-02-18T02:26:05.244Z,58.5
2019-02-18T02:26:31.345Z,58.4
2019-02-18T02:26:57.445Z,58.11
2019-02-18T02:27:23.553Z,58.5
2019-02-18T02:27:49.686Z,58.3
2019-02-18T02:28:15.824Z,58.4
2019-02-18T02:28:41.929Z,58.4
2019-02-18T02:29:08.055Z,58.11
2019-02-18T02:29:34.173Z,58.69
2019-02-18T02:30:00.516Z,58.59
2019-02-18T02:30:26.610Z,59.06
2019-02-18T02:30:52.751Z,59.06
2019-02-18T02:31:19.883Z,59.06
2019-02-18T02:31:46.010Z,59.26
2019-02-18T02:32:12.168Z,58.97
2019-02-18T02:32:38.279Z,58.97
2019-02-18T02:33:04.382Z,59.06
2019-02-18T02:33:30.515Z,59.26
2019-02-18T02:33:56.628Z,59.06
2019-02-18T02:34:22.756Z,59.45
2019-02-18T02:34:48.888Z,59.45
2019-02-18T02:35:14.993Z,59.26
2019-02-18T02:35:41.151Z,59.54
2019-02-18T02:36:07.239Z,59.74
2019-02-18T02:36:33.368Z,60.11
2019-02-18T02:36:59.446Z,60.11
2019-02-18T02:37:25.563Z,59.74
2019-02-18T02:37:51.683Z,59.74
2019-02-18T02:38:19.772Z,60.11
2019-02-18T02:38:45.909Z,59.83
2019-02-18T02:39:12.033Z,60.11
2019-02-18T02:39:38.139Z,59.74
2019-02-18T02:40:04.245Z,59.35
2019-02-18T02:40:30.357Z,59.83
2019-02-18T02:40:56.457Z,59.64
2019-02-18T02:41:22.557Z,59.06
2019-02-18T02:41:48.734Z,59.54
2019-02-18T02:42:14.872Z,59.83
2019-02-18T02:42:41.029Z,59.92
2019-02-18T02:43:07.130Z,59.83
2019-02-18T02:43:33.270Z,59.64
2019-02-18T02:43:59.401Z,59.64
2019-02-18T02:44:25.537Z,59.61
2019-02-18T02:44:51.646Z,59.64
2019-02-18T02:45:17.754Z,59.83
2019-02-18T02:45:43.887Z,59.64
2019-02-18T02:46:10.052Z,59.92
2019-02-18T02:46:36.158Z,59.45
2019-02-18T02:47:02.262Z,59.83
2019-02-18T02:47:28.362Z,59.74
2019-02-18T02:47:54.500Z,59.7
2019-02-18T02:48:20.640Z,59.8
2019-02-18T02:48:46.754Z,59.83
2019-02-18T02:49:12.901Z,60.08
2019-02-18T02:49:39.055Z,60.02
2019-02-18T02:50:05.161Z,59.54
2019-02-18T02:50:31.305Z,60.11
2019-02-18T02:50:57.409Z,59.42
2019-02-18T02:51:23.546Z,60.08
2019-02-18T02:51:49.706Z,60.18
2019-02-18T02:52:15.820Z,59.92
2019-02-18T02:52:41.928Z,60.3
2019-02-18T02:53:08.079Z,60.37
2019-02-18T02:53:34.140Z,60.02
2019-02-18T02:54:00.305Z,60.3
2019-02-18T02:54:26.404Z,60.49
2019-02-18T02:54:52.511Z,60.56
2019-02-18T02:55:18.632Z,60.37
2019-02-18T02:55:44.788Z,60.69
2019-02-18T02:56:10.900Z,60.49
2019-02-18T02:56:37.407Z,60.75
2019-02-18T02:57:03.162Z,60.49
2019-02-18T02:57:29.302Z,60.59
2019-02-18T02:57:55.405Z,60.46
2019-02-18T02:58:21.506Z,60.4
2019-02-18T02:58:47.613Z,60.02
2019-02-18T02:59:13.724Z,60.08
2019-02-18T02:59:39.859Z,60.11
2019-02-18T03:00:05.991Z,60.37
2019-02-18T03:00:32.132Z,60.59
2019-02-18T03:00:58.225Z,60.66
2019-02-18T03:01:24.391Z,60.66
2019-02-18T03:01:50.496Z,60.75
2019-02-18T03:02:16.594Z,60.08
2019-02-18T03:02:42.725Z,60.66
2019-02-18T03:03:08.834Z,60.75
2019-02-18T03:03:34.984Z,60.37
2019-02-18T03:04:01.124Z,60.56
2019-02-18T03:04:27.224Z,60.66
2019-02-18T03:04:53.329Z,60.46
2019-02-18T03:05:19.468Z,60.37
2019-02-18T03:05:45.603Z,60.56
2019-02-18T03:06:11.710Z,60.66
2019-02-18T03:06:37.818Z,60.37
2019-02-18T03:07:03.953Z,60.56
2019-02-18T03:07:30.126Z,60.18
2019-02-18T03:07:56.221Z,60.37
2019-02-18T03:08:24.302Z,60.37
2019-02-18T03:08:50.410Z,60.56
2019-02-18T03:09:16.517Z,60.27
2019-02-18T03:09:42.624Z,60.37
2019-02-18T03:10:08.729Z,60.08
2019-02-18T03:10:34.864Z,60.56
2019-02-18T03:11:00.971Z,60.18
2019-02-18T03:11:27.080Z,59.89
2019-02-18T03:11:53.175Z,59.61
2019-02-18T03:12:19.281Z,59.8
2019-02-18T03:12:45.387Z,59.7
2019-02-18T03:13:11.497Z,60.08
2019-02-18T03:13:37.607Z,59.51
2019-02-18T03:14:03.741Z,60.27
2019-02-18T03:14:29.841Z,60.56
2019-02-18T03:14:55.949Z,60.66
2019-02-18T03:15:22.061Z,60.85
2019-02-18T03:15:48.164Z,60.94
2019-02-18T03:16:14.307Z,61.04
2019-02-18T03:16:40.414Z,61.13
2019-02-18T03:17:06.524Z,61.42
2019-02-18T03:17:32.685Z,61.51
2019-02-18T03:17:58.790Z,61.7
2019-02-18T03:18:24.927Z,61.51
2019-02-18T03:18:51.039Z,61.8
2019-02-18T03:19:17.198Z,61.7
2019-02-18T03:19:43.306Z,61.51
2019-02-18T03:20:09.410Z,61.32
2019-02-18T03:20:35.532Z,61.7
2019-02-18T03:21:01.662Z,61.8
2019-02-18T03:21:27.857Z,61.99
2019-02-18T03:21:53.958Z,62.08
2019-02-18T03:22:20.068Z,62.08
2019-02-18T03:22:46.174Z,61.99
2019-02-18T03:23:12.305Z,61.99
2019-02-18T03:23:38.506Z,61.42
2019-02-18T03:24:04.566Z,61.7
2019-02-18T03:24:30.674Z,61.22
2019-02-18T03:24:56.774Z,60.85
2019-02-18T03:25:22.884Z,61.13
2019-02-18T03:25:48.993Z,60.94
2019-02-18T03:26:15.119Z,61.13
2019-02-18T03:26:41.214Z,61.13
2019-02-18T03:27:07.322Z,60.85
2019-02-18T03:27:33.438Z,60.85
2019-02-18T03:27:59.527Z,61.13
2019-02-18T03:28:25.659Z,60.94
2019-02-18T03:28:51.764Z,61.8
2019-02-18T03:29:17.871Z,61.51
2019-02-18T03:29:43.986Z,61.51
2019-02-18T03:30:10.113Z,61.7
2019-02-18T03:30:36.255Z,62.37
2019-02-18T03:31:02.362Z,62.46
2019-02-18T03:31:28.497Z,62.27
2019-02-18T03:31:54.639Z,62.56
2019-02-18T03:32:20.790Z,62.65
2019-02-18T03:32:46.890Z,62.46
2019-02-18T03:33:13.215Z,62.46
2019-02-18T03:33:39.345Z,62.27
2019-02-18T03:34:05.483Z,62.18
2019-02-18T03:34:31.590Z,62.37
2019-02-18T03:34:57.701Z,61.8
2019-02-18T03:35:23.811Z,61.9
2019-02-18T03:35:49.915Z,61.51
2019-02-18T03:36:16.046Z,61.9
2019-02-18T03:36:42.128Z,61.9
2019-02-18T03:37:08.232Z,62.08
2019-02-18T03:37:34.347Z,62.08
2019-02-18T03:38:00.452Z,61.9
2019-02-18T03:38:31.385Z,61.32
2019-02-18T03:38:54.673Z,61.8
2019-02-18T03:39:20.786Z,61.32
2019-02-18T03:39:46.953Z,61.9
2019-02-18T03:40:13.055Z,61.7
2019-02-18T03:40:39.211Z,61.9
2019-02-18T03:41:07.306Z,62.46
2019-02-18T03:41:33.468Z,61.9
2019-02-18T03:42:00.570Z,61.7
2019-02-18T03:42:26.675Z,61.9
2019-02-18T03:42:52.779Z,62.18
2019-02-18T03:43:18.887Z,61.9
2019-02-18T03:43:45.036Z,61.32
2019-02-18T03:44:11.133Z,61.42
2019-02-18T03:44:37.256Z,61.99
2019-02-18T03:45:03.364Z,61.8
2019-02-18T03:45:29.503Z,61.51
2019-02-18T03:45:55.612Z,62.08
2019-02-18T03:46:21.716Z,61.99
2019-02-18T03:46:50.363Z,61.86
2019-02-18T03:47:14.950Z,61.61
2019-02-18T03:47:41.053Z,61.96
2019-02-18T03:48:07.163Z,61.77
2019-02-18T03:48:33.296Z,61.67
2019-02-18T03:48:59.420Z,61.58
2019-02-18T03:49:25.541Z,62.15
2019-02-18T03:49:51.661Z,61.77
2019-02-18T03:50:17.760Z,61.77
2019-02-18T03:50:43.895Z,61.29
2019-02-18T03:51:10.041Z,61.86
2019-02-18T03:51:36.165Z,62.05
2019-02-18T03:52:02.261Z,62.15
2019-02-18T03:52:28.363Z,62.15
2019-02-18T03:52:54.468Z,61.86
2019-02-18T03:53:20.574Z,61.77
2019-02-18T03:53:46.677Z,62.24
2019-02-18T03:54:12.822Z,62.91
2019-02-18T03:54:39.061Z,62.34
2019-02-18T03:55:05.209Z,62.62
2019-02-18T03:55:31.347Z,61.77
2019-02-18T03:55:57.453Z,61.77
2019-02-18T03:56:23.579Z,62.05
2019-02-18T03:56:49.684Z,61.58
2019-02-18T03:57:15.815Z,62.05
2019-02-18T03:57:41.960Z,62.15
2019-02-18T03:58:08.070Z,62.91
2019-02-18T03:58:34.170Z,62.62
2019-02-18T03:59:00.273Z,62.62
2019-02-18T03:59:26.396Z,62.62
2019-02-18T03:59:52.539Z,62.05
2019-02-18T04:00:18.672Z,62.62
2019-02-18T04:00:44.806Z,62.15
2019-02-18T04:01:10.957Z,61.67
2019-02-18T04:01:37.092Z,62.34
2019-02-18T04:02:03.223Z,62.43
2019-02-18T04:02:29.334Z,62.53
2019-02-18T04:02:55.451Z,62.43
2019-02-18T04:03:21.548Z,62.91
2019-02-18T04:03:47.655Z,62.34
2019-02-18T04:04:13.760Z,62.72
2019-02-18T04:04:39.895Z,62.15
2019-02-18T04:05:06.025Z,62.43
2019-02-18T04:05:32.193Z,61.67
2019-02-18T04:05:58.294Z,61.86
2019-02-18T04:06:24.402Z,61.67
2019-02-18T04:06:50.568Z,61.77
2019-02-18T04:07:16.669Z,62.15
2019-02-18T04:07:42.767Z,61.67
2019-02-18T04:08:08.877Z,61.67
2019-02-18T04:08:42.245Z,62.43
2019-02-18T04:09:03.067Z,62.91
2019-02-18T04:09:29.172Z,62.72
2019-02-18T04:09:55.283Z,62.53
2019-02-18T04:10:21.445Z,62.81
2019-02-18T04:10:47.548Z,62.05
2019-02-18T04:11:13.667Z,62.24
2019-02-18T04:11:39.799Z,62.43
2019-02-18T04:12:05.931Z,62.05
2019-02-18T04:12:32.059Z,62.53
2019-02-18T04:12:58.158Z,62.15
2019-02-18T04:13:24.299Z,62.05
2019-02-18T04:13:50.437Z,62.15
2019-02-18T04:14:16.544Z,62.05
2019-02-18T04:14:42.651Z,62.15
2019-02-18T04:15:08.757Z,62.43
2019-02-18T04:15:34.865Z,62.15
2019-02-18T04:16:00.971Z,62.34
2019-02-18T04:16:27.107Z,62.53
2019-02-18T04:16:53.212Z,61.86
2019-02-18T04:17:19.339Z,61.58
2019-02-18T04:17:45.479Z,61.96
2019-02-18T04:18:11.583Z,61.67
2019-02-18T04:18:37.687Z,61.86
2019-02-18T04:19:03.841Z,62.43
2019-02-18T04:19:29.955Z,62.62
2019-02-18T04:19:56.058Z,62.91
2019-02-18T04:20:22.194Z,62.43
2019-02-18T04:20:48.298Z,62.62
2019-02-18T04:21:14.404Z,62.53
2019-02-18T04:21:40.513Z,62.72
2019-02-18T04:22:06.616Z,62.43
2019-02-18T04:22:32.719Z,62.72
2019-02-18T04:22:58.852Z,62.81
2019-02-18T04:23:24.980Z,62.62
2019-02-18T04:23:51.084Z,62.15
2019-02-18T04:24:17.220Z,61.96
2019-02-18T04:24:43.320Z,62.4
2019-02-18T04:25:09.426Z,62.3
2019-02-18T04:25:35.531Z,62.91
2019-02-18T04:26:01.639Z,62.81
2019-02-18T04:26:27.739Z,62.34
2019-02-18T04:26:53.838Z,62.21
2019-02-18T04:27:19.944Z,62.43
2019-02-18T04:27:46.081Z,62.43
2019-02-18T04:28:12.184Z,62.49
2019-02-18T04:28:38.295Z,62.43
2019-02-18T04:29:04.398Z,61.86
2019-02-18T04:29:30.501Z,61.64
2019-02-18T04:29:56.609Z,61.74
2019-02-18T04:30:23.697Z,61.64
2019-02-18T04:30:49.837Z,61.64
2019-02-18T04:31:15.941Z,62.49
2019-02-18T04:31:42.048Z,62.4
2019-02-18T04:32:08.176Z,62.3
2019-02-18T04:32:34.280Z,62.3
2019-02-18T04:33:00.385Z,62.78
2019-02-18T04:33:26.520Z,62.69
2019-02-18T04:33:52.624Z,62.3
2019-02-18T04:34:18.731Z,62.4
2019-02-18T04:34:44.834Z,62.97
2019-02-18T04:35:10.948Z,63.17
2019-02-18T04:35:37.156Z,63.54
2019-02-18T04:36:03.219Z,63.26
2019-02-18T04:36:29.310Z,63.45
2019-02-18T04:36:55.415Z,63.35
2019-02-18T04:37:21.551Z,63.45
2019-02-18T04:37:47.719Z,63.45
2019-02-18T04:38:13.818Z,63.35
2019-02-18T04:38:39.927Z,63.35
2019-02-18T04:39:08.020Z,63.35
2019-02-18T04:39:34.122Z,63.17
2019-02-18T04:40:00.424Z,63.64
2019-02-18T04:40:26.491Z,63.45
2019-02-18T04:40:52.600Z,63.17
2019-02-18T04:41:18.705Z,63.17
2019-02-18T04:41:44.814Z,63.45
2019-02-18T04:42:10.909Z,63.07
2019-02-18T04:42:37.011Z,63.17
2019-02-18T04:43:03.143Z,63.17
2019-02-18T04:43:29.258Z,63.17
2019-02-18T04:43:56.372Z,63.35
2019-02-18T04:44:22.505Z,63.26
2019-02-18T04:44:48.618Z,63.35
2019-02-18T04:45:14.735Z,63.17
2019-02-18T04:45:40.852Z,63.26
2019-02-18T04:46:07.010Z,63.17
2019-02-18T04:46:33.113Z,63.26
2019-02-18T04:46:59.277Z,63.26
2019-02-18T04:47:25.437Z,63.35
2019-02-18T04:47:51.590Z,63.64
2019-02-18T04:48:17.733Z,63.17
2019-02-18T04:48:43.842Z,63.35
2019-02-18T04:49:09.945Z,63.35
2019-02-18T04:49:36.083Z,63.35
2019-02-18T04:50:02.217Z,63.45
2019-02-18T04:50:28.314Z,63.45
2019-02-18T04:50:54.422Z,63.17
2019-02-18T04:51:20.525Z,63.26
2019-02-18T04:51:46.631Z,63.17
2019-02-18T04:52:12.735Z,63.17
2019-02-18T04:52:38.910Z,63.17
2019-02-18T04:53:05.073Z,63.07
2019-02-18T04:53:31.175Z,63.45
2019-02-18T04:53:57.280Z,63.07
2019-02-18T04:54:23.397Z,63.17
2019-02-18T04:54:49.517Z,63.17
2019-02-18T04:55:15.631Z,63.54
2019-02-18T04:55:41.789Z,64.11
2019-02-18T04:56:07.963Z,64.31
2019-02-18T04:56:34.055Z,63.35
2019-02-18T04:57:00.193Z,63.17
2019-02-18T04:57:26.331Z,63.17
2019-02-18T04:57:52.602Z,63.35
2019-02-18T04:58:19.716Z,63.54
2019-02-18T04:58:45.850Z,63.54
2019-02-18T04:59:11.961Z,63.26
2019-02-18T04:59:38.132Z,63.54
2019-02-18T05:00:04.234Z,64.21
2019-02-18T05:00:30.343Z,63.92
2019-02-18T05:00:56.498Z,63.92
2019-02-18T05:01:23.598Z,64.02
2019-02-18T05:01:49.730Z,64.02
2019-02-18T05:02:15.854Z,63.35
2019-02-18T05:02:41.964Z,63.54
2019-02-18T05:03:08.097Z,62.97
2019-02-18T05:03:34.207Z,63.35
2019-02-18T05:04:00.309Z,63.26
2019-02-18T05:04:26.410Z,63.35
2019-02-18T05:04:52.515Z,63.26
2019-02-18T05:05:18.627Z,62.97
2019-02-18T05:05:44.727Z,63.45
2019-02-18T05:06:10.833Z,63.35
2019-02-18T05:06:36.934Z,64.02
2019-02-18T05:07:03.047Z,64.11
2019-02-18T05:07:29.169Z,64.08
2019-02-18T05:07:55.280Z,64.11
2019-02-18T05:08:21.404Z,64.21
2019-02-18T05:08:47.537Z,64.31
2019-02-18T05:09:15.623Z,64.59
2019-02-18T05:09:41.724Z,64.59
2019-02-18T05:10:07.861Z,63.73
2019-02-18T05:10:33.996Z,64.21
2019-02-18T05:11:00.160Z,64.02
2019-02-18T05:11:26.268Z,63.79
2019-02-18T05:11:52.380Z,64.37
2019-02-18T05:12:18.510Z,64.46
2019-02-18T05:12:44.614Z,64.27
2019-02-18T05:13:10.726Z,64.5
2019-02-18T05:13:36.831Z,65.25
2019-02-18T05:14:02.942Z,64.97
2019-02-18T05:14:29.044Z,64.69
2019-02-18T05:14:55.147Z,65.13
2019-02-18T05:15:21.253Z,65.16
2019-02-18T05:15:47.384Z,64.69
2019-02-18T05:16:13.485Z,65.64
2019-02-18T05:16:39.597Z,64.69
2019-02-18T05:17:05.727Z,65.16
2019-02-18T05:17:31.865Z,64.56
2019-02-18T05:17:57.973Z,64.11
2019-02-18T05:18:24.128Z,64.37
2019-02-18T05:18:50.265Z,64.5
2019-02-18T05:19:16.371Z,64.02
2019-02-18T05:19:43.466Z,64.08
2019-02-18T05:20:09.605Z,64.02
2019-02-18T05:20:35.699Z,64.4
2019-02-18T05:21:01.805Z,64.69
2019-02-18T05:21:27.964Z,63.83
2019-02-18T05:21:54.066Z,63.83
2019-02-18T05:22:20.203Z,64.37
2019-02-18T05:22:46.343Z,64.56
2019-02-18T05:23:12.436Z,64.5
2019-02-18T05:23:38.547Z,64.4
2019-02-18T05:24:04.679Z,64.31
2019-02-18T05:24:30.784Z,64.11
2019-02-18T05:24:56.910Z,64.4
2019-02-18T05:25:23.510Z,64.31
2019-02-18T05:25:49.619Z,63.89
2019-02-18T05:26:15.731Z,63.89
2019-02-18T05:26:41.837Z,64.27
2019-02-18T05:27:07.967Z,64.56
2019-02-18T05:27:36.066Z,64.37
2019-02-18T05:28:02.168Z,64.46
2019-02-18T05:28:28.276Z,64.27
2019-02-18T05:28:54.391Z,64.31
2019-02-18T05:29:20.512Z,64.27
2019-02-18T05:29:46.613Z,64.18
2019-02-18T05:30:12.756Z,64.08
2019-02-18T05:30:39.882Z,64.46
2019-02-18T05:31:05.985Z,64.75
2019-02-18T05:31:32.119Z,64.84
2019-02-18T05:31:58.254Z,64.87
2019-02-18T05:32:24.391Z,65.03
2019-02-18T05:32:50.530Z,65.06
2019-02-18T05:33:16.622Z,64.94
2019-02-18T05:33:42.736Z,65.25
2019-02-18T05:34:08.870Z,64.59
2019-02-18T05:34:35.010Z,65.45
2019-02-18T05:35:01.119Z,65.51
2019-02-18T05:35:27.224Z,65.06
2019-02-18T05:35:55.786Z,64.69
2019-02-18T05:36:20.463Z,64.75
2019-02-18T05:36:46.622Z,64.78
2019-02-18T05:37:12.764Z,64.78
2019-02-18T05:37:38.927Z,64.87
2019-02-18T05:38:05.030Z,65.16